Time;durP1;ratioP1;P1;durP2;ratioP2;P2;SDS_P1;SDS_P2;PMS_P1;PMS_P2;Temp;Humidity;BMP_temperature;BMP_pressure;BME280_temperature;BME280_humidity;BME280_pressure;Samples;Min_cycle;Max_cycle;Signal;HPM_P1;HPM_P2
2023/07/02 00:00:26;;;;;;;7.78;3.45;;;22.10;53.50;;;;;;6277417;22;19991;-71
2023/07/02 00:03:09;;;;;;;5.18;2.92;;;22.20;53.70;;;;;;6250472;22;20034;-71
2023/07/02 00:05:50;;;;;;;4.40;3.45;;;22.20;53.30;;;;;;6277749;22;20097;-71
2023/07/02 00:08:24;;;;;;;4.82;3.55;;;22.10;53.20;;;;;;6250494;22;19999;-71
2023/07/02 00:10:56;;;;;;;4.85;3.40;;;22.20;53.50;;;;;;6250733;22;19995;-71
2023/07/02 00:13:41;;;;;;;4.13;3.20;;;22.20;53.50;;;;;;6251286;22;20003;-71
2023/07/02 00:16:20;;;;;;;5.88;2.78;;;22.20;53.60;;;;;;6277998;22;19992;-71
2023/07/02 00:18:52;;;;;;;3.95;2.92;;;22.20;53.50;;;;;;6276942;22;19996;-71
2023/07/02 00:21:40;;;;;;;6.80;2.97;;;22.20;53.70;;;;;;6251851;22;20341;-71
2023/07/02 00:24:17;;;;;;;5.10;3.65;;;22.20;53.50;;;;;;6249612;22;19996;-71
2023/07/02 00:26:53;;;;;;;4.10;2.88;;;22.20;53.70;;;;;;6276363;22;20070;-71
2023/07/02 00:29:19;;;;;;;4.82;3.65;;;22.20;53.50;;;;;;6276681;22;19999;-71
2023/07/02 00:31:53;;;;;;;4.15;2.75;;;22.20;53.80;;;;;;6277085;22;19996;-72
2023/07/02 00:34:32;;;;;;;3.60;2.80;;;22.10;53.50;;;;;;6277132;22;20067;-71
2023/07/02 00:37:11;;;;;;;3.80;2.70;;;22.10;53.50;;;;;;6277205;22;19992;-72
2023/07/02 00:39:48;;;;;;;4.55;3.17;;;22.10;53.50;;;;;;6249602;22;20000;-72
2023/07/02 00:42:23;;;;;;;9.82;3.53;;;22.10;53.80;;;;;;6250557;22;20048;-71
2023/07/02 00:45:02;;;;;;;3.65;2.97;;;22.10;53.80;;;;;;6276704;22;19992;-71
2023/07/02 00:47:41;;;;;;;3.88;2.97;;;22.20;53.90;;;;;;6250936;22;20356;-72
2023/07/02 00:50:26;;;;;;;5.30;3.03;;;22.20;54.00;;;;;;6250058;22;20393;-71
2023/07/02 00:52:58;;;;;;;8.77;2.90;;;22.10;53.70;;;;;;6277390;22;20343;-71
2023/07/02 00:55:50;;;;;;;5.35;3.28;;;22.20;54.10;;;;;;6276180;22;20404;-71
2023/07/02 00:58:21;;;;;;;5.68;2.67;;;22.20;54.00;;;;;;6277428;22;20023;-71
2023/07/02 01:01:05;;;;;;;3.75;2.47;;;22.20;54.20;;;;;;6276871;22;19995;-71
2023/07/02 01:03:37;;;;;;;5.15;3.40;;;22.20;54.10;;;;;;6277347;22;20003;-71
2023/07/02 01:06:11;;;;;;;4.72;3.35;;;22.30;54.00;;;;;;6277638;22;20022;-72
2023/07/02 01:08:36;;;;;;;3.97;2.50;;;22.30;53.90;;;;;;6277636;22;20008;-71
2023/07/02 01:11:10;;;;;;;5.35;2.90;;;22.30;53.70;;;;;;6250468;22;20002;-71
2023/07/02 01:13:50;;;;;;;;;;;22.30;53.80;;;;;;6277908;22;19991;-71
2023/07/02 01:16:33;;;;;;;5.70;2.92;;;22.40;53.30;;;;;;6277121;22;19895;-71
2023/07/02 01:19:06;;;;;;;4.22;3.03;;;22.40;53.60;;;;;;6276926;22;19999;-71
2023/07/02 01:21:33;;;;;;;5.13;3.30;;;22.40;53.50;;;;;;6276818;22;20304;-70
2023/07/02 01:24:05;;;;;;;4.88;3.20;;;22.50;53.70;;;;;;6277210;22;19991;-71
2023/07/02 01:26:37;;;;;;;3.28;2.67;;;22.50;53.90;;;;;;6276215;22;19998;-71
2023/07/02 01:29:20;;;;;;;3.17;2.78;;;22.50;54.00;;;;;;6277133;22;20042;-71
2023/07/02 01:31:50;;;;;;;3.65;2.65;;;22.50;54.10;;;;;;6277095;22;19996;-71
2023/07/02 01:34:21;;;;;;;6.00;2.95;;;22.60;54.20;;;;;;6277557;22;19995;-71
2023/07/02 01:36:58;;;;;;;5.47;3.28;;;22.50;54.10;;;;;;6278211;22;20004;-71
2023/07/02 01:39:29;;;;;;;3.85;2.75;;;22.50;54.50;;;;;;6277519;22;20003;-71
2023/07/02 01:42:24;;;;;;;5.28;3.10;;;22.50;54.50;;;;;;6277442;22;20419;-71
2023/07/02 01:44:58;;;;;;;4.07;3.13;;;22.50;54.80;;;;;;6277494;22;20058;-71
2023/07/02 01:47:34;;;;;;;;;;;22.50;55.00;;;;;;6276540;22;19991;-71
2023/07/02 01:50:10;;;;;;;4.35;3.05;;;22.50;54.10;;;;;;6249991;22;19945;-72
2023/07/02 01:52:41;;;;;;;4.63;2.97;;;22.50;54.50;;;;;;6250230;22;20284;-71
2023/07/02 01:55:21;;;;;;;4.15;2.95;;;22.40;54.40;;;;;;6277177;22;20026;-72
2023/07/02 01:58:00;;;;;;;5.22;3.42;;;22.40;54.40;;;;;;6277249;22;20277;-71
2023/07/02 02:00:25;;;;;;;3.95;2.83;;;22.40;54.60;;;;;;6276781;22;20062;-71
2023/07/02 02:03:02;;;;;;;5.03;3.20;;;22.30;54.70;;;;;;6276417;22;20026;-71
2023/07/02 02:05:33;;;;;;;3.75;2.55;;;22.30;54.80;;;;;;6250067;22;20070;-71
2023/07/02 02:08:04;;;;;;;4.75;2.67;;;22.40;54.90;;;;;;6278097;22;19992;-71
2023/07/02 02:10:43;;;;;;;3.53;2.00;;;22.40;54.90;;;;;;6279126;22;19998;-71
2023/07/02 02:13:21;;;;;;;3.78;2.65;;;22.40;55.20;;;;;;6251002;22;20003;-71
2023/07/02 02:15:59;;;;;;;5.90;2.42;;;22.50;55.20;;;;;;6279068;22;19992;-71
2023/07/02 02:18:29;;;;;;;6.18;2.30;;;22.50;55.20;;;;;;6280023;22;20392;-72
2023/07/02 02:21:05;;;;;;;3.83;2.50;;;22.60;55.20;;;;;;6250696;22;20006;-72
2023/07/02 02:23:41;;;;;;;5.93;2.30;;;22.60;55.30;;;;;;6279698;22;20003;-71
2023/07/02 02:26:29;;;;;;;4.63;2.38;;;22.60;55.40;;;;;;6278553;22;19996;-71
2023/07/02 02:29:14;;;;;;;5.55;2.38;;;22.60;55.50;;;;;;6250863;22;20046;-72
2023/07/02 02:31:51;;;;;;;3.28;2.35;;;22.60;55.70;;;;;;6278556;22;20002;-71
2023/07/02 02:34:22;;;;;;;5.95;2.20;;;22.60;55.80;;;;;;6279163;22;19996;-71
2023/07/02 02:36:55;;;;;;;3.83;2.70;;;22.70;55.90;;;;;;6251933;22;19999;-71
2023/07/02 02:39:37;;;;;;;3.60;2.55;;;22.70;55.90;;;;;;6251537;22;20300;-72
2023/07/02 02:42:16;;;;;;;2.97;1.75;;;22.70;56.00;;;;;;6251285;22;19992;-71
2023/07/02 02:44:55;;;;;;;3.60;1.70;;;22.70;56.00;;;;;;6279072;22;19998;-72
2023/07/02 02:47:34;;;;;;;4.68;2.78;;;22.70;56.00;;;;;;6251555;22;20004;-71
2023/07/02 02:50:11;;;;;;;2.83;2.08;;;22.70;56.20;;;;;;6278423;22;20346;-72
2023/07/02 02:52:37;;;;;;;3.00;2.33;;;22.70;56.10;;;;;;6251765;22;19996;-72
2023/07/02 02:55:22;;;;;;;2.65;2.17;;;22.70;56.20;;;;;;6250991;22;20113;-71
2023/07/02 02:58:01;;;;;;;3.38;2.15;;;22.70;56.20;;;;;;6278427;22;20274;-72
2023/07/02 03:00:43;;;;;;;4.47;2.33;;;22.70;56.30;;;;;;6279287;22;20400;-71
2023/07/02 03:03:16;;;;;;;3.42;2.33;;;22.70;56.40;;;;;;6278228;22;19991;-71
2023/07/02 03:05:50;;;;;;;4.53;2.70;;;22.70;56.70;;;;;;6278766;22;19995;-71
2023/07/02 03:08:23;;;;;;;6.65;2.75;;;22.70;56.70;;;;;;6279168;22;20045;-71
2023/07/02 03:11:02;;;;;;;6.82;2.70;;;22.70;57.00;;;;;;6250681;22;19992;-71
2023/07/02 03:13:44;;;;;;;3.55;2.30;;;22.60;57.10;;;;;;6251277;22;20300;-71
2023/07/02 03:16:26;;;;;;;2.30;1.90;;;22.70;56.90;;;;;;6278846;22;20066;-71
2023/07/02 03:19:00;;;;;;;5.53;2.50;;;22.70;57.10;;;;;;6277658;22;19991;-71
2023/07/02 03:21:39;;;;;;;2.83;1.92;;;22.70;57.30;;;;;;6277920;22;20371;-72
2023/07/02 03:24:16;;;;;;;3.05;2.30;;;22.70;57.30;;;;;;6251052;22;20473;-72
2023/07/02 03:26:48;;;;;;;3.55;2.25;;;22.70;57.20;;;;;;6251490;22;20003;-71
2023/07/02 03:29:16;;;;;;;3.78;2.70;;;22.70;57.30;;;;;;6278432;22;20070;-71
2023/07/02 03:31:46;;;;;;;4.93;2.63;;;22.80;57.90;;;;;;6250516;22;20078;-71
2023/07/02 03:34:17;;;;;;;4.88;2.42;;;22.70;57.80;;;;;;6251097;22;19999;-72
2023/07/02 03:36:59;;;;;;;2.72;2.45;;;22.70;58.30;;;;;;6278029;22;20062;-72
2023/07/02 03:39:33;;;;;;;5.25;2.15;;;22.70;58.30;;;;;;6278327;22;19999;-72
2023/07/02 03:42:14;;;;;;;4.18;3.10;;;22.70;58.00;;;;;;6278452;22;19987;-71
2023/07/02 03:44:45;;;;;;;3.55;2.28;;;22.70;58.50;;;;;;6278123;22;20070;-72
2023/07/02 03:47:21;;;;;;;5.53;2.80;;;22.70;58.60;;;;;;6278438;22;19995;-72
2023/07/02 03:50:18;;;;;;;10.40;2.90;;;22.70;58.70;;;;;;6278408;22;20078;-72
2023/07/02 03:52:48;;;;;;;7.20;2.42;;;22.60;58.60;;;;;;6277721;22;19999;-71
2023/07/02 03:55:33;;;;;;;3.30;2.35;;;22.70;58.70;;;;;;6277877;22;19995;-71
2023/07/02 03:58:04;;;;;;;3.90;2.42;;;22.60;58.70;;;;;;6277338;22;20003;-71
2023/07/02 04:00:30;;;;;;;7.47;2.70;;;22.60;58.60;;;;;;6277334;22;20048;-71
2023/07/02 04:03:15;;;;;;;2.88;2.10;;;22.60;59.10;;;;;;6277459;22;20387;-72
2023/07/02 04:05:46;;;;;;;3.47;2.13;;;22.60;59.00;;;;;;6277535;22;20106;-71
2023/07/02 04:08:28;;;;;;;2.85;2.50;;;22.60;58.80;;;;;;6279082;22;19999;-71
2023/07/02 04:11:03;;;;;;;7.97;2.60;;;22.70;59.10;;;;;;6250957;22;20079;-71
2023/07/02 04:13:34;;;;;;;6.28;2.90;;;22.60;59.20;;;;;;6277977;22;20002;-72
2023/07/02 04:16:08;;;;;;;2.85;2.28;;;22.70;59.30;;;;;;6278221;22;19991;-72
2023/07/02 04:18:36;;;;;;;4.72;2.97;;;22.60;59.30;;;;;;6278262;22;19991;-71
2023/07/02 04:21:16;;;;;;;2.83;2.30;;;22.60;59.40;;;;;;6276950;22;19992;-72
2023/07/02 04:23:58;;;;;;;4.20;2.60;;;22.60;59.20;;;;;;6277907;22;20011;-72
2023/07/02 04:26:42;;;;;;;6.72;2.25;;;22.70;59.40;;;;;;6249551;22;20004;-71
2023/07/02 04:29:18;;;;;;;4.38;2.17;;;22.70;59.40;;;;;;6277783;22;20075;-71
2023/07/02 04:31:51;;;;;;;7.32;3.40;;;22.80;59.10;;;;;;6277289;22;19996;-71
2023/07/02 04:34:22;;;;;;;4.63;2.40;;;22.80;59.20;;;;;;6250843;22;19996;-71
2023/07/02 04:36:51;;;;;;;3.95;2.65;;;22.80;59.10;;;;;;6250567;22;20000;-71
2023/07/02 04:39:22;;;;;;;4.85;2.60;;;22.90;59.10;;;;;;6277641;22;20003;-71
2023/07/02 04:41:56;;;;;;;3.60;2.65;;;23.00;59.10;;;;;;6277428;22;20064;-71
2023/07/02 04:44:32;;;;;;;2.47;1.92;;;23.00;59.00;;;;;;6277593;22;20069;-71
2023/07/02 04:47:06;;;;;;;5.00;2.45;;;23.00;58.90;;;;;;6277307;22;20006;-72
2023/07/02 04:49:43;;;;;;;4.32;2.40;;;23.00;58.90;;;;;;6250335;22;20000;-71
2023/07/02 04:52:14;;;;;;;2.88;2.35;;;23.00;58.60;;;;;;6249868;22;20002;-71
2023/07/02 04:54:44;;;;;;;5.60;2.22;;;23.00;58.50;;;;;;6250585;22;20082;-72
2023/07/02 04:57:26;;;;;;;3.65;2.10;;;23.10;58.50;;;;;;6277631;22;20003;-71
2023/07/02 04:59:57;;;;;;;5.30;1.85;;;23.10;58.50;;;;;;6250123;22;20012;-71
2023/07/02 05:02:31;;;;;;;4.63;2.17;;;23.20;58.50;;;;;;6249773;22;20415;-72
2023/07/02 05:05:05;;;;;;;6.00;2.60;;;23.30;58.30;;;;;;6251264;22;20304;-71
2023/07/02 05:07:44;;;;;;;;;;;23.30;58.30;;;;;;6250244;22;20079;-72
2023/07/02 05:10:23;;;;;;;3.13;2.22;;;23.30;57.90;;;;;;6277178;22;19930;-72
2023/07/02 05:12:54;;;;;;;3.35;2.38;;;23.30;58.00;;;;;;6278034;22;20338;-71
2023/07/02 05:15:34;;;;;;;3.08;2.10;;;23.30;58.20;;;;;;6277357;22;19988;-71
2023/07/02 05:18:04;;;;;;;4.80;2.33;;;23.30;58.90;;;;;;6251570;22;19995;-72
2023/07/02 05:20:30;;;;;;;3.13;2.10;;;23.30;58.40;;;;;;6249772;22;20030;-71
2023/07/02 05:22:55;;;;;;;3.67;2.58;;;23.30;58.30;;;;;;6250283;22;19995;-72
2023/07/02 05:25:30;;;;;;;3.50;2.40;;;23.30;58.30;;;;;;6276017;22;20408;-72
2023/07/02 05:28:01;;;;;;;4.03;2.60;;;23.30;58.20;;;;;;6250565;22;20087;-71
2023/07/02 05:30:37;;;;;;;3.53;2.10;;;23.40;58.20;;;;;;6250120;22;19999;-71
2023/07/02 05:33:15;;;;;;;3.45;2.53;;;23.50;58.00;;;;;;6277563;22;20078;-71
2023/07/02 05:35:54;;;;;;;2.88;2.40;;;23.50;57.50;;;;;;6250579;22;20342;-72
2023/07/02 05:38:22;;;;;;;2.53;2.30;;;23.50;57.30;;;;;;6251282;22;20396;-72
2023/07/02 05:40:51;;;;;;;2.70;1.90;;;23.60;57.30;;;;;;6276689;22;20003;-72
2023/07/02 05:43:19;;;;;;;3.30;2.42;;;23.60;57.10;;;;;;6249862;22;20000;-71
2023/07/02 05:45:53;;;;;;;3.13;2.00;;;23.60;57.00;;;;;;6250141;22;20129;-72
2023/07/02 05:48:24;;;;;;;7.20;2.15;;;23.60;57.00;;;;;;6277379;22;19992;-71
2023/07/02 05:50:55;;;;;;;6.32;2.70;;;23.60;57.00;;;;;;6277013;22;20020;-71
2023/07/02 05:53:29;;;;;;;3.72;2.60;;;23.60;57.00;;;;;;6277594;22;20102;-71
2023/07/02 05:55:56;;;;;;;4.13;2.25;;;23.60;56.80;;;;;;6250001;22;20003;-71
2023/07/02 05:58:22;;;;;;;2.67;1.80;;;23.60;57.40;;;;;;6249671;22;19992;-72
2023/07/02 06:00:56;;;;;;;3.17;2.33;;;23.70;57.10;;;;;;6277759;22;19992;-72
2023/07/02 06:03:22;;;;;;;;;;;23.70;56.90;;;;;;6276344;22;20026;-72
2023/07/02 06:06:06;;;;;;;3.17;2.40;;;23.80;56.90;;;;;;6276314;22;19899;-72
2023/07/02 06:08:45;;;;;;;4.15;2.58;;;23.90;56.40;;;;;;6276711;22;19992;-71
2023/07/02 06:11:16;;;;;;;3.17;2.15;;;23.90;56.20;;;;;;6276971;22;20304;-71
2023/07/02 06:13:55;;;;;;;3.22;1.83;;;24.00;56.30;;;;;;6277041;22;19991;-71
2023/07/02 06:16:21;;;;;;;3.15;2.20;;;24.00;56.30;;;;;;6276654;22;20003;-72
2023/07/02 06:18:49;;;;;;;3.58;2.20;;;24.00;56.40;;;;;;6277045;22;19991;-71
2023/07/02 06:21:30;;;;;;;4.85;2.58;;;24.10;56.10;;;;;;6249148;22;20004;-72
2023/07/02 06:24:01;;;;;;;2.80;2.08;;;24.00;56.00;;;;;;6277592;22;19988;-71
2023/07/02 06:26:32;;;;;;;3.42;2.20;;;24.00;56.10;;;;;;6275548;22;19996;-72
2023/07/02 06:29:03;;;;;;;2.83;2.30;;;24.00;56.20;;;;;;6277597;22;20071;-72
2023/07/02 06:31:28;;;;;;;2.55;2.35;;;24.00;56.30;;;;;;6276436;22;19992;-72
2023/07/02 06:34:02;;;;;;;5.80;2.50;;;24.00;56.10;;;;;;6249844;22;20011;-72
2023/07/02 06:36:37;;;;;;;4.90;2.40;;;23.90;56.00;;;;;;6249562;22;20424;-72
2023/07/02 06:39:03;;;;;;;4.28;2.40;;;23.90;56.40;;;;;;6249874;22;20401;-73
2023/07/02 06:41:34;;;;;;;3.90;2.75;;;23.90;56.20;;;;;;6276699;22;20013;-73
2023/07/02 06:44:06;;;;;;;3.08;1.95;;;23.90;56.20;;;;;;6276776;22;19999;-72
2023/07/02 06:46:40;;;;;;;3.05;2.20;;;23.90;56.40;;;;;;6276297;22;20022;-72
2023/07/02 06:49:12;;;;;;;3.20;1.98;;;24.00;56.80;;;;;;6249884;22;20000;-72
2023/07/02 06:51:43;;;;;;;3.22;2.20;;;24.10;56.70;;;;;;6250188;22;20014;-72
2023/07/02 06:54:17;;;;;;;2.78;2.17;;;24.30;56.60;;;;;;6277279;22;20068;-72
2023/07/02 06:56:43;;;;;;;3.35;2.17;;;24.50;56.30;;;;;;6250421;22;20003;-72
2023/07/02 06:59:18;;;;;;;3.13;1.90;;;24.60;55.30;;;;;;6278481;22;19995;-72
2023/07/02 07:01:50;;;;;;;2.15;1.95;;;24.60;55.10;;;;;;6251916;22;20415;-73
2023/07/02 07:04:27;;;;;;;4.15;3.17;;;24.80;55.00;;;;;;6252264;22;20072;-71
2023/07/02 07:06:58;;;;;;;3.83;2.28;;;24.90;54.60;;;;;;6252139;22;20000;-71
2023/07/02 07:09:30;;;;;;;1.88;1.65;;;25.00;54.50;;;;;;6251145;22;20013;-71
2023/07/02 07:12:01;;;;;;;2.80;1.90;;;25.20;54.00;;;;;;6278341;22;19996;-72
2023/07/02 07:14:29;;;;;;;2.60;2.00;;;25.20;53.40;;;;;;6278617;22;19995;-72
2023/07/02 07:16:58;;;;;;;2.85;2.10;;;25.30;53.60;;;;;;6277866;22;19995;-72
2023/07/02 07:19:26;;;;;;;1.60;1.50;;;25.40;53.00;;;;;;6278373;22;20506;-72
2023/07/02 07:22:00;;;;;;;8.05;2.28;;;25.40;52.20;;;;;;6250620;22;20003;-72
2023/07/02 07:24:26;;;;;;;3.28;1.80;;;25.40;51.90;;;;;;6278417;22;20049;-72
2023/07/02 07:27:03;;;;;;;2.90;2.50;;;25.50;52.40;;;;;;6277254;22;20079;-72
2023/07/02 07:29:28;;;;;;;2.17;1.80;;;25.60;52.40;;;;;;6278500;22;20030;-72
2023/07/02 07:32:02;;;;;;;3.58;2.78;;;25.70;51.50;;;;;;6277518;22;19996;-72
2023/07/02 07:34:33;;;;;;;3.97;1.90;;;25.70;51.60;;;;;;6277892;22;19995;-72
2023/07/02 07:37:06;;;;;;;3.05;2.00;;;25.80;50.80;;;;;;6277695;22;20000;-71
2023/07/02 07:39:37;;;;;;;3.67;2.30;;;25.90;51.00;;;;;;6277724;22;20416;-71
2023/07/02 07:42:06;;;;;;;6.00;1.98;;;25.90;50.40;;;;;;6278399;22;19996;-72
2023/07/02 07:44:40;;;;;;;5.00;2.10;;;25.90;49.80;;;;;;6250639;22;20000;-71
2023/07/02 07:47:09;;;;;;;5.10;2.00;;;26.00;50.20;;;;;;6277716;22;19995;-71
2023/07/02 07:49:40;;;;;;;5.05;1.60;;;26.00;49.70;;;;;;6250402;22;20077;-72
2023/07/02 07:52:08;;;;;;;3.47;2.00;;;26.10;49.30;;;;;;6278671;22;19992;-72
2023/07/02 07:54:37;;;;;;;3.20;1.88;;;26.20;49.10;;;;;;6276519;22;20086;-71
2023/07/02 07:57:08;;;;;;;3.80;2.15;;;26.20;48.60;;;;;;6278281;22;19995;-71
2023/07/02 07:59:36;;;;;;;3.25;1.27;;;26.30;48.70;;;;;;6277212;22;20003;-71
2023/07/02 08:02:05;;;;;;;2.78;2.20;;;26.40;48.80;;;;;;6277803;22;20110;-71
2023/07/02 08:04:36;;;;;;;3.35;2.47;;;26.40;48.20;;;;;;6277962;22;19992;-72
2023/07/02 08:07:04;;;;;;;6.20;2.67;;;26.50;48.30;;;;;;6251655;22;19996;-72
2023/07/02 08:09:33;;;;;;;3.63;2.42;;;26.50;48.00;;;;;;6277350;22;20299;-72
2023/07/02 08:12:03;;;;;;;3.03;2.13;;;26.50;48.00;;;;;;6277367;22;20067;-72
2023/07/02 08:14:28;;;;;;;7.18;3.08;;;26.50;48.10;;;;;;6277568;22;20049;-72
2023/07/02 08:16:59;;;;;;;9.48;2.42;;;26.50;47.70;;;;;;6250886;22;20007;-72
2023/07/02 08:19:33;;;;;;;4.05;2.38;;;26.60;47.90;;;;;;6251502;22;20046;-71
2023/07/02 08:22:00;;;;;;;3.50;2.33;;;26.70;47.70;;;;;;6249122;22;20085;-71
2023/07/02 08:24:26;;;;;;;3.13;2.28;;;26.70;47.10;;;;;;6277326;22;19995;-72
2023/07/02 08:26:51;;;;;;;5.45;2.70;;;26.70;46.70;;;;;;6276774;22;20000;-71
2023/07/02 08:29:17;;;;;;;1.65;1.55;;;26.80;46.60;;;;;;6277429;22;19995;-71
2023/07/02 08:31:43;;;;;;;3.20;2.08;;;26.80;45.60;;;;;;6277834;22;20038;-72
2023/07/02 08:34:09;;;;;;;2.47;1.77;;;26.90;44.90;;;;;;6250857;22;19992;-72
2023/07/02 08:36:35;;;;;;;2.78;2.20;;;26.90;44.60;;;;;;6250565;22;20086;-72
2023/07/02 08:39:00;;;;;;;2.97;2.35;;;26.90;43.90;;;;;;6250713;22;20083;-72
2023/07/02 08:41:26;;;;;;;1.92;1.60;;;27.00;44.10;;;;;;6277230;22;19992;-72
2023/07/02 08:43:56;;;;;;;2.80;2.10;;;27.10;43.90;;;;;;6250501;22;20000;-72
2023/07/02 08:46:29;;;;;;;1.75;1.65;;;27.10;43.90;;;;;;6251430;22;20000;-72
2023/07/02 08:48:55;;;;;;;4.07;2.17;;;27.20;43.30;;;;;;6277518;22;20074;-72
2023/07/02 08:51:20;;;;;;;3.97;1.90;;;27.30;42.60;;;;;;6277635;22;20031;-72
2023/07/02 08:53:46;;;;;;;2.95;1.85;;;27.40;42.30;;;;;;6277483;22;19998;-72
2023/07/02 08:56:12;;;;;;;4.07;1.90;;;27.40;42.50;;;;;;6277507;22;20032;-72
2023/07/02 08:58:38;;;;;;;2.63;1.75;;;27.50;42.10;;;;;;6276813;22;20026;-72
2023/07/02 09:01:14;;;;;;;3.08;1.88;;;27.50;41.80;;;;;;6249868;22;20208;-72
2023/07/02 09:03:46;;;;;;;5.63;2.05;;;27.50;42.40;;;;;;6250219;22;20054;-72
2023/07/02 09:06:18;;;;;;;2.92;2.10;;;27.50;41.90;;;;;;6250217;22;19999;-72
2023/07/02 09:08:44;;;;;;;5.43;1.65;;;27.50;41.60;;;;;;6251283;22;20102;-72
2023/07/02 09:11:16;;;;;;;4.88;1.80;;;27.50;41.40;;;;;;6250026;22;20028;-72
2023/07/02 09:13:58;;;;;;;2.83;2.20;;;27.50;41.70;;;;;;6277525;22;19992;-72
2023/07/02 09:16:26;;;;;;;2.80;1.90;;;27.60;41.30;;;;;;6277806;22;20304;-72
2023/07/02 09:19:01;;;;;;;4.32;2.30;;;27.60;41.10;;;;;;6250186;22;20007;-72
2023/07/02 09:21:46;;;;;;;4.35;1.95;;;27.60;41.20;;;;;;6277611;22;19996;-72
2023/07/02 09:24:19;;;;;;;3.50;1.90;;;27.60;40.90;;;;;;6250152;22;19991;-72
2023/07/02 09:26:53;;;;;;;3.97;2.42;;;27.60;40.70;;;;;;6277193;22;20427;-72
2023/07/02 09:29:32;;;;;;;3.80;2.63;;;27.60;40.70;;;;;;6249662;22;20073;-72
2023/07/02 09:32:08;;;;;;;4.00;2.30;;;27.60;40.70;;;;;;6276939;22;20081;-72
2023/07/02 09:34:39;;;;;;;3.28;2.50;;;27.60;40.80;;;;;;6250312;22;20022;-72
2023/07/02 09:37:12;;;;;;;2.90;2.13;;;27.60;41.00;;;;;;6250280;22;20010;-72
2023/07/02 09:39:39;;;;;;;3.10;1.95;;;27.50;40.90;;;;;;6250926;22;20321;-72
2023/07/02 09:42:10;;;;;;;2.22;1.80;;;27.40;40.80;;;;;;6277481;22;20006;-71
2023/07/02 09:44:42;;;;;;;2.13;1.60;;;27.20;41.00;;;;;;6277013;22;20042;-72
2023/07/02 09:47:12;;;;;;;4.00;2.97;;;27.10;40.80;;;;;;6277107;22;20350;-72
2023/07/02 09:49:48;;;;;;;3.38;2.08;;;26.90;41.50;;;;;;6276896;22;20022;-72
2023/07/02 09:52:22;;;;;;;4.43;2.40;;;26.80;41.90;;;;;;6277449;22;20025;-72
2023/07/02 09:55:04;;;;;;;2.35;1.63;;;26.70;42.40;;;;;;6276247;22;19988;-72
2023/07/02 09:57:46;;;;;;;5.07;2.25;;;26.60;42.60;;;;;;6276698;22;19999;-72
2023/07/02 10:00:17;;;;;;;4.30;2.10;;;26.40;43.10;;;;;;6276444;22;20297;-73
2023/07/02 10:02:51;;;;;;;4.57;1.98;;;26.20;43.30;;;;;;6276946;22;20026;-73
2023/07/02 10:05:30;;;;;;;4.88;2.25;;;26.10;43.40;;;;;;6276812;22;19995;-72
2023/07/02 10:08:13;;;;;;;5.40;2.25;;;25.90;43.50;;;;;;6277454;22;20347;-72
2023/07/02 10:10:49;;;;;;;5.22;2.10;;;25.80;44.00;;;;;;6276402;22;19995;-73
2023/07/02 10:13:35;;;;;;;4.28;1.92;;;25.70;44.30;;;;;;6250149;22;19999;-72
2023/07/02 10:16:13;;;;;;;4.00;2.20;;;25.60;44.40;;;;;;6250064;22;20000;-72
2023/07/02 10:18:44;;;;;;;4.03;2.13;;;25.50;44.10;;;;;;6276555;22;20416;-72
2023/07/02 10:21:21;;;;;;;2.88;1.70;;;25.50;44.50;;;;;;6249978;22;19999;-72
2023/07/02 10:23:49;;;;;;;6.22;3.15;;;25.50;44.80;;;;;;6277302;22;20486;-72
2023/07/02 10:26:19;;;;;;;3.15;2.13;;;25.50;45.30;;;;;;6276047;22;19996;-72
2023/07/02 10:29:00;;;;;;;4.38;2.58;;;25.50;45.70;;;;;;6277715;22;20007;-72
2023/07/02 10:31:26;;;;;;;3.28;2.13;;;25.50;46.00;;;;;;6278818;22;20037;-72
2023/07/02 10:33:55;;;;;;;4.88;2.92;;;25.50;46.40;;;;;;6278465;22;19995;-72
2023/07/02 10:36:29;;;;;;;4.78;2.60;;;25.50;46.50;;;;;;6278753;22;20010;-72
2023/07/02 10:39:04;;;;;;;4.78;2.55;;;25.50;46.60;;;;;;6278940;22;20003;-72
2023/07/02 10:41:49;;;;;;;2.72;1.98;;;25.30;46.40;;;;;;6278882;22;20067;-72
2023/07/02 10:44:20;;;;;;;5.93;3.47;;;25.30;46.70;;;;;;6278990;22;20399;-72
2023/07/02 10:46:54;;;;;;;7.93;4.70;;;25.40;46.80;;;;;;6251426;22;19996;-72
2023/07/02 10:49:31;;;;;;;7.32;4.18;;;25.50;46.40;;;;;;6279150;22;20003;-73
2023/07/02 10:52:01;;;;;;;3.85;2.72;;;25.50;46.30;;;;;;6279116;22;20053;-72
2023/07/02 10:54:42;;;;;;;4.57;2.97;;;25.50;46.20;;;;;;6251149;22;20003;-71
2023/07/02 10:57:20;;;;;;;8.23;5.15;;;25.70;46.10;;;;;;6251738;22;20033;-71
2023/07/02 10:59:48;;;;;;;7.38;3.17;;;25.70;45.60;;;;;;6279321;22;20003;-71
2023/07/02 11:02:27;;;;;;;7.95;3.22;;;25.80;44.80;;;;;;6278609;22;19996;-71
2023/07/02 11:04:55;;;;;;;14.18;8.90;;;25.90;44.40;;;;;;6278325;22;20037;-71
2023/07/02 11:07:27;;;;;;;11.15;5.80;;;25.90;44.20;;;;;;6278331;22;19995;-71
2023/07/02 11:09:55;;;;;;;5.75;3.20;;;26.00;44.40;;;;;;6277906;22;20022;-72
2023/07/02 11:12:30;;;;;;;6.68;3.25;;;26.10;44.10;;;;;;6278621;22;20037;-70
2023/07/02 11:15:23;;;;;;;4.13;2.70;;;26.10;43.70;;;;;;6251658;22;20006;-70
2023/07/02 11:17:55;;;;;;;6.32;3.67;;;26.10;43.30;;;;;;6251716;22;20003;-70
2023/07/02 11:20:39;;;;;;;5.03;3.35;;;26.20;43.30;;;;;;6277830;22;19992;-71
2023/07/02 11:23:21;;;;;;;5.22;3.00;;;26.30;43.40;;;;;;6278079;22;19996;-70
2023/07/02 11:26:00;;;;;;;9.25;4.13;;;26.40;42.50;;;;;;6250756;22;20006;-71
2023/07/02 11:28:27;;;;;;;6.95;3.97;;;26.50;42.90;;;;;;6278093;22;20435;-70
2023/07/02 11:30:56;;;;;;;11.45;5.93;;;26.50;42.90;;;;;;6278353;22;19995;-70
2023/07/02 11:33:48;;;;;;;8.15;2.80;;;26.60;43.20;;;;;;6277877;22;20408;-69
2023/07/02 11:36:24;;;;;;;7.15;2.35;;;26.70;43.30;;;;;;6245485;22;20008;-70
2023/07/02 11:38:51;;;;;;;5.18;3.90;;;26.80;43.00;;;;;;6251147;22;20400;-70
2023/07/02 11:41:18;;;;;;;8.18;4.93;;;26.90;43.10;;;;;;6250886;22;20007;-70
2023/07/02 11:43:48;;;;;;;3.17;2.50;;;27.10;42.70;;;;;;6251324;22;20027;-70
2023/07/02 11:46:19;;;;;;;3.78;2.08;;;27.20;42.30;;;;;;6278540;22;20370;-70
2023/07/02 11:48:47;;;;;;;3.45;1.77;;;27.40;41.80;;;;;;6278496;22;20031;-70
2023/07/02 11:51:15;;;;;;;4.32;2.30;;;27.50;41.90;;;;;;6278075;22;19995;-70
2023/07/02 11:53:44;;;;;;;4.93;2.67;;;27.60;42.00;;;;;;6251040;22;20042;-70
2023/07/02 11:56:09;;;;;;;4.25;2.17;;;27.60;41.30;;;;;;6250622;22;20044;-71
2023/07/02 11:58:35;;;;;;;4.57;2.42;;;27.70;41.40;;;;;;6251002;22;20011;-70
2023/07/02 12:01:09;;;;;;;5.65;3.15;;;27.80;41.70;;;;;;6251040;22;20061;-71
2023/07/02 12:03:40;;;;;;;7.45;2.47;;;27.80;41.40;;;;;;6251141;22;20031;-70
2023/07/02 12:06:13;;;;;;;14.35;2.90;;;28.00;41.60;;;;;;6277371;22;20010;-71
2023/07/02 12:08:40;;;;;;;4.63;2.60;;;28.00;41.00;;;;;;6250697;22;20000;-71
2023/07/02 12:11:10;;;;;;;4.50;2.70;;;28.20;41.10;;;;;;6278099;22;20401;-70
2023/07/02 12:13:42;;;;;;;3.10;2.58;;;28.30;40.40;;;;;;6278610;22;19988;-70
2023/07/02 12:16:08;;;;;;;7.20;2.35;;;28.30;41.10;;;;;;6278011;22;20007;-71
2023/07/02 12:18:33;;;;;;;5.40;2.63;;;28.40;40.70;;;;;;6277816;22;20412;-71
2023/07/02 12:21:00;;;;;;;4.50;2.55;;;28.50;40.40;;;;;;6277948;22;20161;-70
2023/07/02 12:23:26;;;;;;;6.10;2.65;;;28.60;40.00;;;;;;6278268;22;20007;-70
2023/07/02 12:25:56;;;;;;;6.50;2.72;;;28.60;40.00;;;;;;6277525;22;20020;-70
2023/07/02 12:28:21;;;;;;;5.63;2.65;;;28.60;39.10;;;;;;6277859;22;20002;-70
2023/07/02 12:30:47;;;;;;;5.20;2.33;;;28.70;39.20;;;;;;6277808;22;20016;-70
2023/07/02 12:33:16;;;;;;;4.93;2.40;;;28.70;38.60;;;;;;6277980;22;19996;-70
2023/07/02 12:35:41;;;;;;;16.23;2.92;;;28.70;38.70;;;;;;6277170;22;19998;-70
2023/07/02 12:38:08;;;;;;;3.78;1.98;;;28.70;38.40;;;;;;6278302;22;20303;-70
2023/07/02 12:40:40;;;;;;;6.72;2.67;;;28.70;38.50;;;;;;6278084;22;19995;-71
2023/07/02 12:43:06;;;;;;;5.72;2.47;;;28.70;38.70;;;;;;6278624;22;19996;-71
2023/07/02 12:45:32;;;;;;;4.38;2.28;;;28.70;38.80;;;;;;6278028;22;19995;-70
2023/07/02 12:48:03;;;;;;;2.92;1.88;;;28.80;38.60;;;;;;6277387;22;20400;-70
2023/07/02 12:50:32;;;;;;;22.75;2.17;;;28.80;38.20;;;;;;6278094;22;20015;-70
2023/07/02 12:53:06;;;;;;;7.50;2.10;;;29.00;38.00;;;;;;6250382;22;20129;-70
2023/07/02 12:55:37;;;;;;;3.13;2.40;;;29.00;37.90;;;;;;6277242;22;19999;-70
2023/07/02 12:58:03;;;;;;;4.47;2.13;;;29.00;37.20;;;;;;6277545;22;19996;-70
2023/07/02 13:00:32;;;;;;;5.18;2.15;;;29.10;37.70;;;;;;6249363;22;20042;-70
2023/07/02 13:03:00;;;;;;;6.28;2.22;;;29.10;37.80;;;;;;6278005;22;20002;-71
2023/07/02 13:05:32;;;;;;;10.65;2.38;;;29.10;37.90;;;;;;6277380;22;20070;-71
2023/07/02 13:08:02;;;;;;;4.15;2.47;;;29.10;37.70;;;;;;6277267;22;20415;-72
2023/07/02 13:10:30;;;;;;;3.70;1.98;;;29.10;37.50;;;;;;6276968;22;20022;-72
2023/07/02 13:13:04;;;;;;;6.28;2.45;;;29.10;37.80;;;;;;6276916;22;20048;-71
2023/07/02 13:15:34;;;;;;;2.00;1.77;;;29.10;37.60;;;;;;6250433;22;20408;-71
2023/07/02 13:18:03;;;;;;;4.75;2.50;;;29.00;37.90;;;;;;6251175;22;20039;-70